createdAt,value
2023-11-15T00:02:10.472Z,11.78
2023-11-15T00:04:40.059Z,11.36
2023-11-15T00:07:09.569Z,11.28
2023-11-15T00:09:40.555Z,11.38
2023-11-15T00:12:10.045Z,11.72
2023-11-15T00:14:39.760Z,11.64
2023-11-15T00:17:09.592Z,11.49
2023-11-15T00:19:39.150Z,11.75
2023-11-15T00:22:08.297Z,11.82
2023-11-15T00:24:38.340Z,11.88
2023-11-15T00:27:09.450Z,12.01
2023-11-15T00:29:39.072Z,11.90
2023-11-15T00:32:08.367Z,12.00
2023-11-15T00:34:37.968Z,11.36
2023-11-15T00:37:07.756Z,11.75
2023-11-15T00:39:37.328Z,11.90
2023-11-15T00:42:08.535Z,11.91
2023-11-15T00:44:40.142Z,11.98
2023-11-15T00:47:09.413Z,12.02
2023-11-15T00:49:39.952Z,12.09
2023-11-15T00:52:10.378Z,12.11
2023-11-15T00:54:39.879Z,12.13
2023-11-15T00:57:09.388Z,12.10
2023-11-15T00:59:45.671Z,12.06
2023-11-15T01:02:15.337Z,12.01
2023-11-15T01:04:44.775Z,11.98
2023-11-15T01:07:13.875Z,12.03
2023-11-15T01:09:43.423Z,12.04
2023-11-15T01:12:12.697Z,11.91
2023-11-15T01:14:43.918Z,12.01
2023-11-15T01:17:13.159Z,12.01
2023-11-15T01:19:42.688Z,12.00
2023-11-15T01:22:12.007Z,11.90
2023-11-15T01:24:42.804Z,11.95
2023-11-15T01:27:12.564Z,11.80
2023-11-15T01:29:43.452Z,11.84
2023-11-15T01:32:12.699Z,11.94
2023-11-15T01:34:42.096Z,11.76
2023-11-15T01:37:11.634Z,11.79
2023-11-15T01:39:41.313Z,11.79
2023-11-15T01:42:11.331Z,11.75
2023-11-15T01:44:41.233Z,11.74
2023-11-15T01:47:11.865Z,11.73
2023-11-15T01:49:41.858Z,11.75
2023-11-15T01:52:11.643Z,11.67
2023-11-15T01:54:41.259Z,11.63
2023-11-15T01:57:10.463Z,11.61
2023-11-15T01:59:40.014Z,11.61
2023-11-15T02:02:09.169Z,11.49
2023-11-15T02:04:40.089Z,11.44
2023-11-15T02:07:10.317Z,11.38
2023-11-15T02:09:41.409Z,11.45
2023-11-15T02:12:10.758Z,11.41
2023-11-15T02:14:40.273Z,11.26
2023-11-15T02:17:09.430Z,11.30
2023-11-15T02:19:40.427Z,11.27
2023-11-15T02:22:10.295Z,11.23
2023-11-15T02:24:41.119Z,11.25
2023-11-15T02:27:10.209Z,11.17
2023-11-15T02:29:40.593Z,11.12
2023-11-15T02:32:10.875Z,11.12
2023-11-15T02:34:40.385Z,11.10
2023-11-15T02:37:10.413Z,11.05
2023-11-15T02:39:41.973Z,11.04
2023-11-15T02:42:11.104Z,11.03
2023-11-15T02:44:40.590Z,11.02
2023-11-15T02:47:09.714Z,11.01
2023-11-15T02:49:39.174Z,11.02
2023-11-15T02:52:08.261Z,10.99
2023-11-15T02:54:37.709Z,10.94
2023-11-15T02:57:08.523Z,10.94
2023-11-15T02:59:38.050Z,10.92
2023-11-15T03:02:07.874Z,10.91
2023-11-15T03:04:37.394Z,10.89
2023-11-15T03:07:06.542Z,10.89
2023-11-15T03:09:36.121Z,10.87
2023-11-15T03:12:05.750Z,10.82
2023-11-15T03:14:37.189Z,10.85
2023-11-15T03:17:08.001Z,10.83
2023-11-15T03:19:37.517Z,10.82
2023-11-15T03:22:06.738Z,10.80
2023-11-15T03:24:36.155Z,10.79
2023-11-15T03:27:05.316Z,10.77
2023-11-15T03:29:35.031Z,10.78
2023-11-15T03:32:05.885Z,10.77
2023-11-15T03:34:36.774Z,10.75
2023-11-15T03:37:06.510Z,10.77
2023-11-15T03:39:36.037Z,10.71
2023-11-15T03:42:05.391Z,10.71
2023-11-15T03:44:34.900Z,10.68
2023-11-15T03:47:06.177Z,10.68
2023-11-15T03:49:35.712Z,10.69
2023-11-15T03:52:04.944Z,10.67
2023-11-15T03:54:34.492Z,10.68
2023-11-15T03:57:05.340Z,10.72
2023-11-15T03:59:35.106Z,10.69
2023-11-15T04:02:05.876Z,10.68
2023-11-15T04:04:36.045Z,10.61
2023-11-15T04:07:05.504Z,10.63
2023-11-15T04:09:35.039Z,10.64
2023-11-15T04:12:04.525Z,10.61
2023-11-15T04:14:36.020Z,10.60
2023-11-15T04:17:07.250Z,10.60
2023-11-15T04:19:37.045Z,10.56
2023-11-15T04:22:12.386Z,10.56
2023-11-15T04:24:45.576Z,10.55
2023-11-15T04:27:15.215Z,10.53
2023-11-15T04:29:44.704Z,10.54
2023-11-15T04:32:15.322Z,10.50
2023-11-15T04:34:44.949Z,10.47
2023-11-15T04:37:14.197Z,10.46
2023-11-15T04:39:43.652Z,10.46
2023-11-15T04:42:12.847Z,10.44
2023-11-15T04:44:42.874Z,10.44
2023-11-15T04:47:12.065Z,10.41
2023-11-15T04:49:44.187Z,10.38
2023-11-15T04:52:14.020Z,10.39
2023-11-15T04:54:44.180Z,10.38
2023-11-15T04:57:13.874Z,10.37
2023-11-15T04:59:46.410Z,10.38
2023-11-15T05:02:15.536Z,10.34
2023-11-15T05:04:48.214Z,10.33
2023-11-15T05:07:18.308Z,10.34
2023-11-15T05:09:47.783Z,10.32
2023-11-15T05:12:17.457Z,10.33
2023-11-15T05:14:47.618Z,10.32
2023-11-15T05:17:16.815Z,10.31
2023-11-15T05:19:47.704Z,10.31
2023-11-15T05:22:16.870Z,10.28
2023-11-15T05:24:46.305Z,10.26
2023-11-15T05:27:15.472Z,10.24
2023-11-15T05:29:44.884Z,10.25
2023-11-15T05:32:14.070Z,10.21
2023-11-15T05:34:43.528Z,10.21
2023-11-15T05:37:14.056Z,10.21
2023-11-15T05:39:45.118Z,10.20
2023-11-15T05:42:14.332Z,10.20
2023-11-15T05:44:43.829Z,10.17
2023-11-15T05:47:12.961Z,10.17
2023-11-15T05:49:42.392Z,10.15
2023-11-15T05:52:12.428Z,10.16
2023-11-15T05:54:45.471Z,10.12
2023-11-15T05:57:15.214Z,10.11
2023-11-15T05:59:44.615Z,10.10
2023-11-15T06:02:13.817Z,10.10
2023-11-15T06:04:43.491Z,10.10
2023-11-15T06:07:12.812Z,10.10
2023-11-15T06:09:43.781Z,10.08
2023-11-15T06:12:12.934Z,10.06
2023-11-15T06:14:42.446Z,10.06
2023-11-15T06:17:11.616Z,10.08
2023-11-15T06:19:40.993Z,10.04
2023-11-15T06:22:10.138Z,10.03
2023-11-15T06:24:41.489Z,10.04
2023-11-15T06:27:12.227Z,10.03
2023-11-15T06:29:41.681Z,10.03
2023-11-15T06:32:10.903Z,10.03
2023-11-15T06:34:40.409Z,10.03
2023-11-15T06:37:09.692Z,10.03
2023-11-15T06:39:39.175Z,10.01
2023-11-15T06:42:09.974Z,10.01
2023-11-15T06:44:43.252Z,10.00
2023-11-15T06:47:14.292Z,10.00
2023-11-15T06:49:44.302Z,10.00
2023-11-15T06:52:13.499Z,10.01
2023-11-15T06:54:42.928Z,9.99
2023-11-15T06:57:12.614Z,9.99
2023-11-15T06:59:43.516Z,9.99
2023-11-15T07:02:13.056Z,9.98
2023-11-15T07:04:42.592Z,9.97
2023-11-15T07:07:12.104Z,9.98
2023-11-15T07:09:41.525Z,9.96
2023-11-15T07:12:11.186Z,9.97
2023-11-15T07:14:41.494Z,9.97
2023-11-15T07:17:13.904Z,9.96
2023-11-15T07:19:44.212Z,9.96
2023-11-15T07:22:13.403Z,9.96
2023-11-15T07:24:44.134Z,9.94
2023-11-15T07:27:13.295Z,9.96
2023-11-15T07:29:42.764Z,9.97
2023-11-15T07:32:13.394Z,9.98
2023-11-15T07:34:43.287Z,9.98
2023-11-15T07:37:12.469Z,9.96
2023-11-15T07:39:42.395Z,9.98
2023-11-15T07:42:11.631Z,9.99
2023-11-15T07:44:42.378Z,9.97
2023-11-15T07:47:12.237Z,9.95
2023-11-15T07:49:43.161Z,9.97
2023-11-15T07:52:13.024Z,9.98
2023-11-15T07:54:42.509Z,9.98
2023-11-15T07:57:13.173Z,9.94
2023-11-15T07:59:42.781Z,9.97
2023-11-15T08:02:13.079Z,9.98
2023-11-15T08:04:44.548Z,10.00
2023-11-15T08:07:13.759Z,10.01
2023-11-15T08:09:51.828Z,10.00
2023-11-15T08:12:22.090Z,10.01
2023-11-15T08:14:51.319Z,10.02
2023-11-15T08:17:20.948Z,10.02
2023-11-15T08:19:50.400Z,10.04
2023-11-15T08:22:19.868Z,10.04
2023-11-15T08:24:50.155Z,10.07
2023-11-15T08:27:21.104Z,10.07
2023-11-15T08:29:50.312Z,10.08
2023-11-15T08:32:19.933Z,10.09
2023-11-15T08:34:49.965Z,10.10
2023-11-15T08:37:19.490Z,10.11
2023-11-15T08:39:48.634Z,10.12
2023-11-15T08:42:18.658Z,10.11
2023-11-15T08:44:49.640Z,10.11
2023-11-15T08:47:19.202Z,10.10
2023-11-15T08:49:49.474Z,10.12
2023-11-15T08:52:20.373Z,10.12
2023-11-15T08:54:49.546Z,10.12
2023-11-15T08:57:19.272Z,10.15
2023-11-15T08:59:49.919Z,10.11
2023-11-15T09:02:23.377Z,10.14
2023-11-15T09:04:53.460Z,10.15
2023-11-15T09:07:25.065Z,10.14
2023-11-15T09:09:55.834Z,10.15
2023-11-15T09:12:31.899Z,10.15
2023-11-15T09:15:04.986Z,10.13
2023-11-15T09:17:34.732Z,10.15
2023-11-15T09:20:04.875Z,10.14
2023-11-15T09:22:36.248Z,10.15
2023-11-15T09:25:11.261Z,10.16
2023-11-15T09:27:43.852Z,10.15
2023-11-15T09:30:15.767Z,10.16
2023-11-15T09:32:45.434Z,10.13
2023-11-15T09:35:14.786Z,10.13
2023-11-15T09:37:45.105Z,10.13
2023-11-15T09:40:15.041Z,10.15
2023-11-15T09:42:45.788Z,10.13
2023-11-15T09:45:19.076Z,10.12
2023-11-15T09:47:49.582Z,10.13
2023-11-15T09:50:25.271Z,10.10
2023-11-15T09:52:56.702Z,10.10
2023-11-15T09:55:26.256Z,10.11
2023-11-15T09:57:56.964Z,10.11
2023-11-15T10:00:30.810Z,10.11
2023-11-15T10:03:00.672Z,10.10
2023-11-15T10:05:30.320Z,10.11
2023-11-15T10:08:10.224Z,10.12
2023-11-15T10:10:40.503Z,10.10
2023-11-15T10:13:13.621Z,10.10
2023-11-15T10:15:45.842Z,10.12
2023-11-15T10:18:16.845Z,10.13
2023-11-15T10:20:46.187Z,10.10
2023-11-15T10:23:16.387Z,10.12
2023-11-15T10:25:49.328Z,10.12
2023-11-15T10:28:19.796Z,10.15
2023-11-15T10:30:52.063Z,10.15
2023-11-15T10:33:21.944Z,10.15
2023-11-15T10:35:53.624Z,10.19
2023-11-15T10:38:24.429Z,10.21
2023-11-15T10:40:53.694Z,10.20
2023-11-15T10:43:23.270Z,10.22
2023-11-15T10:45:54.032Z,10.22
2023-11-15T10:48:24.044Z,10.22
2023-11-15T10:50:56.756Z,10.24
2023-11-15T10:53:28.082Z,10.26
2023-11-15T10:55:57.332Z,10.17
2023-11-15T10:58:26.900Z,10.21
2023-11-15T11:00:57.490Z,10.24
2023-11-15T11:03:29.739Z,10.23
2023-11-15T11:06:00.710Z,10.28
2023-11-15T11:08:29.483Z,10.26
2023-11-15T11:11:04.880Z,10.27
2023-11-15T11:13:35.407Z,10.30
2023-11-15T11:16:22.133Z,10.31
2023-11-15T11:19:09.738Z,10.30
2023-11-15T11:21:57.288Z,10.32
2023-11-15T11:24:31.653Z,10.33
2023-11-15T11:27:15.707Z,10.32
2023-11-15T11:30:04.056Z,10.28
2023-11-15T11:32:33.969Z,10.30
2023-11-15T11:35:31.477Z,10.30
2023-11-15T11:38:02.286Z,10.26
2023-11-15T11:40:34.404Z,10.27
2023-11-15T11:43:13.825Z,10.28
2023-11-15T11:45:44.782Z,10.23
2023-11-15T11:48:17.970Z,10.23
2023-11-15T11:50:54.691Z,10.19
2023-11-15T11:53:24.132Z,10.23
2023-11-15T11:55:56.211Z,10.27
2023-11-15T11:58:27.641Z,10.28
2023-11-15T12:01:00.994Z,10.27
2023-11-15T12:03:32.021Z,10.31
2023-11-15T12:06:08.728Z,10.32
2023-11-15T12:08:38.820Z,10.33
2023-11-15T12:11:11.880Z,10.34
2023-11-15T12:13:45.198Z,10.36
2023-11-15T12:16:18.732Z,10.36
2023-11-15T12:19:04.916Z,10.33
2023-11-15T12:21:35.092Z,10.34
2023-11-15T12:24:07.888Z,10.33
2023-11-15T12:26:45.611Z,10.36
2023-11-15T12:29:20.770Z,10.35
2023-11-15T12:31:51.163Z,10.34
2023-11-15T12:34:20.307Z,10.35
2023-11-15T12:36:51.436Z,10.36
2023-11-15T12:39:23.403Z,10.37
2023-11-15T12:41:58.493Z,10.39
2023-11-15T12:44:27.732Z,10.39
2023-11-15T12:47:01.807Z,10.39
2023-11-15T12:49:31.070Z,10.39
2023-11-15T12:52:00.613Z,10.39
2023-11-15T12:54:31.150Z,10.38
2023-11-15T12:57:05.944Z,10.37
2023-11-15T12:59:35.326Z,10.36
2023-11-15T13:02:05.205Z,10.35
2023-11-15T13:04:49.189Z,10.36
2023-11-15T13:07:18.422Z,10.35
2023-11-15T13:09:47.402Z,10.35
2023-11-15T13:12:25.608Z,10.35
2023-11-15T13:14:54.894Z,10.32
2023-11-15T13:17:24.746Z,10.33
2023-11-15T13:19:53.662Z,10.34
2023-11-15T13:22:25.315Z,10.23
2023-11-15T13:24:54.180Z,10.31
2023-11-15T13:27:24.758Z,10.29
2023-11-15T13:29:53.800Z,10.29
2023-11-15T13:32:23.491Z,10.27
2023-11-15T13:34:52.594Z,10.28
2023-11-15T13:37:21.841Z,10.28
2023-11-15T13:39:50.710Z,10.26
2023-11-15T13:42:20.296Z,10.22
2023-11-15T13:44:50.631Z,10.25
2023-11-15T13:47:20.151Z,10.26
2023-11-15T13:49:49.117Z,10.27
2023-11-15T13:52:18.338Z,9.97
2023-11-15T13:54:48.196Z,9.92
2023-11-15T13:57:18.814Z,9.76
2023-11-15T13:59:48.316Z,9.92
2023-11-15T14:02:19.555Z,9.63
2023-11-15T14:04:49.558Z,9.78
2023-11-15T14:07:18.871Z,9.97
2023-11-15T14:09:47.939Z,10.06
2023-11-15T14:12:17.171Z,9.99
2023-11-15T14:14:46.087Z,10.01
2023-11-15T14:17:15.650Z,9.97
2023-11-15T14:19:46.021Z,10.00
2023-11-15T14:22:15.277Z,9.98
2023-11-15T14:24:44.170Z,9.90
2023-11-15T14:27:17.365Z,9.64
2023-11-15T14:29:46.632Z,9.79
2023-11-15T14:32:18.473Z,9.91
2023-11-15T14:34:48.735Z,9.91
2023-11-15T14:37:17.982Z,9.91
2023-11-15T14:39:46.949Z,9.88
2023-11-15T14:42:19.555Z,9.59
2023-11-15T14:44:50.142Z,9.60
2023-11-15T14:47:20.429Z,9.49
2023-11-15T14:49:50.692Z,8.97
2023-11-15T14:52:22.945Z,8.79
2023-11-15T14:54:52.249Z,8.38
2023-11-15T14:57:22.895Z,8.89
2023-11-15T14:59:53.484Z,8.83
2023-11-15T15:02:22.723Z,9.01
2023-11-15T15:04:53.168Z,9.05
2023-11-15T15:07:22.505Z,9.21
2023-11-15T15:09:51.459Z,9.22
2023-11-15T15:12:22.452Z,9.20
2023-11-15T15:14:51.465Z,9.19
2023-11-15T15:17:24.020Z,9.18
2023-11-15T15:19:56.607Z,9.19
2023-11-15T15:22:27.566Z,8.64
2023-11-15T15:24:56.782Z,8.68
2023-11-15T15:27:28.613Z,8.56
2023-11-15T15:29:59.472Z,8.78
2023-11-15T15:32:29.172Z,8.92
2023-11-15T15:34:59.596Z,8.81
2023-11-15T15:37:29.480Z,8.74
2023-11-15T15:39:58.590Z,8.82
2023-11-15T15:42:31.009Z,8.49
2023-11-15T15:45:00.501Z,8.38
2023-11-15T15:47:29.769Z,8.71
2023-11-15T15:50:00.070Z,8.51
2023-11-15T15:52:29.462Z,8.56
2023-11-15T15:54:58.697Z,8.56
2023-11-15T15:57:28.206Z,8.18
2023-11-15T15:59:57.284Z,8.58
2023-11-15T16:02:26.657Z,8.24
2023-11-15T16:04:56.102Z,8.21
2023-11-15T16:07:26.759Z,8.37
2023-11-15T16:09:55.739Z,8.51
2023-11-15T16:12:25.095Z,7.92
2023-11-15T16:14:54.106Z,8.08
2023-11-15T16:17:23.527Z,8.44
2023-11-15T16:19:56.447Z,8.36
2023-11-15T16:22:29.094Z,8.14
2023-11-15T16:24:58.306Z,8.29
2023-11-15T16:27:34.444Z,8.40
2023-11-15T16:30:07.055Z,8.35
2023-11-15T16:32:36.869Z,8.43
2023-11-15T16:35:09.520Z,8.45
2023-11-15T16:37:42.772Z,8.21
2023-11-15T16:40:12.720Z,8.40
2023-11-15T16:42:42.020Z,8.25
2023-11-15T16:45:11.956Z,8.40
2023-11-15T16:47:41.773Z,8.42
2023-11-15T16:50:11.292Z,8.37
2023-11-15T16:52:41.991Z,8.40
2023-11-15T16:55:13.907Z,8.24
2023-11-15T16:57:43.293Z,8.15
2023-11-15T17:00:14.652Z,8.18
2023-11-15T17:02:45.386Z,8.01
2023-11-15T17:05:14.467Z,8.01
2023-11-15T17:07:45.128Z,8.08
2023-11-15T17:10:14.161Z,8.24
2023-11-15T17:12:43.607Z,8.16
2023-11-15T17:15:13.892Z,8.20
2023-11-15T17:17:43.855Z,8.32
2023-11-15T17:20:14.908Z,8.35
2023-11-15T17:22:45.784Z,8.27
2023-11-15T17:25:19.773Z,8.29
2023-11-15T17:27:50.842Z,8.01
2023-11-15T17:30:20.510Z,8.26
2023-11-15T17:32:49.964Z,8.23
2023-11-15T17:35:19.184Z,8.40
2023-11-15T17:37:49.984Z,8.45
2023-11-15T17:40:20.810Z,8.25
2023-11-15T17:42:50.176Z,8.12
2023-11-15T17:45:19.326Z,7.93
2023-11-15T17:47:48.801Z,7.98
2023-11-15T17:50:20.773Z,7.90
2023-11-15T17:52:53.003Z,8.20
2023-11-15T17:55:22.910Z,8.03
2023-11-15T17:57:53.377Z,8.21
2023-11-15T18:00:24.537Z,8.26
2023-11-15T18:02:53.989Z,8.32
2023-11-15T18:05:23.467Z,7.82
2023-11-15T18:07:55.832Z,7.78
2023-11-15T18:10:30.010Z,8.04
2023-11-15T18:12:59.642Z,8.28
2023-11-15T18:15:29.139Z,8.36
2023-11-15T18:17:59.673Z,8.27
2023-11-15T18:20:29.105Z,8.12
2023-11-15T18:22:59.819Z,8.18
2023-11-15T18:25:28.760Z,8.13
2023-11-15T18:27:57.986Z,8.22
2023-11-15T18:30:27.037Z,8.24
2023-11-15T18:32:57.331Z,8.07
2023-11-15T18:35:26.400Z,7.94
2023-11-15T18:37:58.566Z,8.14
2023-11-15T18:40:29.256Z,8.21
2023-11-15T18:42:59.240Z,8.20
2023-11-15T18:45:28.733Z,8.32
2023-11-15T18:47:58.160Z,8.36
2023-11-15T18:50:27.271Z,8.40
2023-11-15T18:52:58.977Z,8.41
2023-11-15T18:55:30.322Z,8.41
2023-11-15T18:57:59.535Z,8.43
2023-11-15T19:00:28.607Z,8.43
2023-11-15T19:02:59.951Z,8.44
2023-11-15T19:05:32.676Z,8.47
2023-11-15T19:08:02.090Z,8.48
2023-11-15T19:10:33.709Z,8.50
2023-11-15T19:13:03.049Z,8.50
2023-11-15T19:15:32.415Z,8.48
2023-11-15T19:18:01.863Z,8.51
2023-11-15T19:20:32.025Z,8.47
2023-11-15T19:23:01.380Z,8.43
2023-11-15T19:25:32.444Z,8.38
2023-11-15T19:28:04.085Z,8.36
2023-11-15T19:30:33.428Z,8.27
2023-11-15T19:33:03.047Z,8.10
2023-11-15T19:35:32.028Z,8.02
2023-11-15T19:38:01.460Z,8.01
2023-11-15T19:40:30.709Z,8.07
2023-11-15T19:43:00.637Z,8.09
2023-11-15T19:45:32.334Z,8.09
2023-11-15T19:48:01.854Z,8.10
2023-11-15T19:50:31.847Z,8.03
2023-11-15T19:53:03.827Z,8.03
2023-11-15T19:55:36.354Z,8.00
2023-11-15T19:58:06.124Z,8.00
2023-11-15T20:00:37.452Z,8.00
2023-11-15T20:03:11.337Z,7.98
2023-11-15T20:05:41.304Z,7.94
2023-11-15T20:08:10.617Z,7.89
2023-11-15T20:10:40.290Z,7.84
2023-11-15T20:13:09.614Z,7.88
2023-11-15T20:15:42.497Z,7.86
2023-11-15T20:18:11.867Z,7.64
2023-11-15T20:20:42.448Z,7.66
2023-11-15T20:23:12.887Z,7.53
2023-11-15T20:25:43.165Z,7.41
2023-11-15T20:28:17.457Z,7.28
2023-11-15T20:30:54.907Z,7.47
2023-11-15T20:33:26.668Z,7.50
2023-11-15T20:35:55.970Z,7.52
2023-11-15T20:38:25.402Z,7.38
2023-11-15T20:40:57.234Z,7.34
2023-11-15T20:43:26.487Z,7.36
2023-11-15T20:46:10.250Z,7.39
2023-11-15T20:48:46.179Z,7.43
2023-11-15T20:51:15.157Z,7.42
2023-11-15T20:53:45.071Z,7.41
2023-11-15T20:56:14.077Z,7.42
2023-11-15T20:58:43.407Z,7.44
2023-11-15T21:01:15.840Z,7.45
2023-11-15T21:03:45.305Z,7.48
2023-11-15T21:06:19.654Z,7.48
2023-11-15T21:08:49.584Z,7.49
2023-11-15T21:11:18.533Z,7.47
2023-11-15T21:13:48.618Z,7.47
2023-11-15T21:16:19.484Z,7.45
2023-11-15T21:18:48.876Z,7.47
2023-11-15T21:21:17.890Z,7.50
2023-11-15T21:23:47.475Z,7.48
2023-11-15T21:26:16.603Z,7.48
2023-11-15T21:28:48.699Z,7.48
2023-11-15T21:31:18.991Z,7.39
2023-11-15T21:33:48.310Z,7.38
2023-11-15T21:36:17.884Z,7.40
2023-11-15T21:38:47.150Z,7.35
2023-11-15T21:41:16.078Z,7.22
2023-11-15T21:43:45.307Z,7.25
2023-11-15T21:46:15.267Z,7.24
2023-11-15T21:48:46.164Z,7.19
2023-11-15T21:51:15.275Z,7.05
2023-11-15T21:53:44.597Z,7.06
2023-11-15T21:56:13.549Z,7.03
2023-11-15T21:58:42.766Z,6.96
2023-11-15T22:01:14.163Z,6.98
2023-11-15T22:03:43.916Z,7.03
2023-11-15T22:06:14.468Z,7.02
2023-11-15T22:08:43.712Z,6.96
2023-11-15T22:11:12.654Z,6.93
2023-11-15T22:13:41.916Z,6.93
2023-11-15T22:16:14.405Z,6.91
2023-11-15T22:18:43.923Z,6.93
2023-11-15T22:21:14.289Z,6.90
2023-11-15T22:23:45.657Z,6.90
2023-11-15T22:26:15.558Z,6.91
2023-11-15T22:28:44.848Z,6.92
2023-11-15T22:31:14.755Z,6.93
2023-11-15T22:33:44.132Z,6.92
2023-11-15T22:36:16.388Z,6.96
2023-11-15T22:38:45.716Z,6.93
2023-11-15T22:41:14.670Z,6.87
2023-11-15T22:43:43.890Z,6.83
2023-11-15T22:46:13.424Z,6.86
2023-11-15T22:48:42.924Z,6.60
2023-11-15T22:51:11.981Z,6.52
2023-11-15T22:53:42.699Z,6.14
2023-11-15T22:56:11.956Z,6.33
2023-11-15T22:58:41.141Z,6.30
2023-11-15T23:01:12.974Z,5.90
2023-11-15T23:03:43.260Z,5.25
2023-11-15T23:06:13.018Z,5.09
2023-11-15T23:08:45.599Z,5.22
2023-11-15T23:11:14.643Z,5.05
2023-11-15T23:13:44.730Z,4.74
2023-11-15T23:16:14.307Z,4.69
2023-11-15T23:18:43.583Z,4.71
2023-11-15T23:21:12.604Z,4.60
2023-11-15T23:23:43.642Z,4.56
2023-11-15T23:26:12.569Z,4.48
2023-11-15T23:28:41.795Z,4.44
2023-11-15T23:31:10.791Z,4.48
2023-11-15T23:33:40.119Z,4.52
2023-11-15T23:36:09.857Z,4.44
2023-11-15T23:38:38.072Z,4.36
2023-11-15T23:41:08.757Z,4.28
2023-11-15T23:43:37.988Z,4.36
2023-11-15T23:46:07.350Z,4.23
2023-11-15T23:48:37.176Z,4.40
2023-11-15T23:51:07.038Z,4.73
2023-11-15T23:53:36.597Z,4.72
2023-11-15T23:56:04.840Z,4.98
2023-11-15T23:58:35.459Z,5.06
